Mill Rose Farm Restricted Landing Area

Jump to: basic info | weather | runways | comments

Related pages: nearby airports | nearby navaids | notams | map

Basic information (top)

Codes: IL68
Location: lon 42.077202, lat -88.159798, elev 850 ft / 259 m msl
Status: small_airport

Weather (top)

Current conditions for Dupage Airport 11nm (20km) SSW (rec'd 2014/11/28 05:52Z):

KDPA 280552Z 00000KT 9SM CLR M11/M12 A3036 RMK AO2 SLP294 60000 I1000 I6000 T11061122 11067 21111 410331111 58010

Airport forecast for Dupage Airport 11nm (20km) SSW (rec'd 2014/11/28 06:39Z):

TAF KDPA 280538Z 2806/2906 VRB03KT P6SM SCT120 
     FM281000 23003KT P6SM BKN080 
     FM281200 19007KT 5SM -SN BR BKN030 OVC050 
     FM281400 18009KT P6SM SCT040 OVC070 
     FM281700 17012G19KT P6SM SCT040 OVC060 
     FM290100 19011KT P6SM BKN090

Runways (top)

N/S: 2,500 x 100 ft (762 x 30 m) — grass — lighted

Latest comments (top)

No comments yet for Mill Rose Farm Restricted Landing Area

More... (top)

See also NOTAMs and nearby airports and navaids, or visit the Mill Rose Farm Restricted Landing Area page at the main OurAirports website..